Time;durP1;ratioP1;P1;durP2;ratioP2;P2;SDS_P1;SDS_P2;PMS_P1;PMS_P2;Temp;Humidity;BMP_temperature;BMP_pressure;BME280_temperature;BME280_humidity;BME280_pressure;Samples;Min_cycle;Max_cycle;Signal;HPM_P1;HPM_P2
2022/10/13 00:01:11;;;;;;;24.77;17.08;;;10.50;83.90;;;8.98;100.00;96556.75;4982542;28;20105;-66
2022/10/13 00:03:40;;;;;;;24.25;17.40;;;10.50;84.00;;;8.99;100.00;96554.94;4968577;28;20034;-66
2022/10/13 00:06:07;;;;;;;23.23;17.17;;;10.60;83.80;;;8.97;100.00;96549.88;4973750;28;20030;-66
2022/10/13 00:08:33;;;;;;;25.50;17.70;;;10.50;83.70;;;8.97;100.00;96543.78;4986584;28;20040;-68
2022/10/13 00:10:59;;;;;;;26.20;19.15;;;10.50;83.50;;;8.95;100.00;96551.03;4979536;28;20038;-66
2022/10/13 00:13:25;;;;;;;25.52;18.98;;;10.50;84.00;;;8.91;100.00;96542.66;4985330;28;20189;-66
2022/10/13 00:15:50;;;;;;;25.85;19.88;;;10.50;84.70;;;8.89;100.00;96545.47;4965957;28;20091;-66
2022/10/13 00:18:16;;;;;;;25.02;17.75;;;10.50;85.10;;;8.90;100.00;96551.53;4986433;28;20054;-66
2022/10/13 00:20:47;;;;;;;21.45;17.15;;;10.50;84.80;;;8.89;100.00;96555.13;5004887;28;20121;-66
2022/10/13 00:23:13;;;;;;;21.67;16.80;;;10.50;84.50;;;8.89;100.00;96548.09;4966606;28;20034;-66
2022/10/13 00:25:43;;;;;;;20.17;17.15;;;10.50;84.30;;;8.92;100.00;96556.59;4966875;28;20049;-66
2022/10/13 00:28:10;;;;;;;19.98;16.08;;;10.40;84.20;;;8.90;100.00;96560.22;4980077;28;20117;-67
2022/10/13 00:30:36;;;;;;;20.23;15.30;;;10.40;83.70;;;8.88;100.00;96561.38;4972013;28;20080;-65
2022/10/13 00:33:02;;;;;;;21.25;16.48;;;10.30;83.50;;;8.85;100.00;96559.09;4988592;28;20032;-68
2022/10/13 00:35:28;;;;;;;26.60;16.80;;;10.30;83.30;;;8.82;100.00;96557.59;4977244;28;20121;-69
2022/10/13 00:37:54;;;;;;;28.25;17.20;;;10.30;83.10;;;8.81;100.00;96560.38;4976945;28;20160;-69
2022/10/13 00:40:19;;;;;;;27.13;18.15;;;10.30;83.00;;;8.78;100.00;96556.28;4997148;28;20061;-69
2022/10/13 00:42:45;;;;;;;31.52;17.90;;;10.30;82.80;;;8.73;100.00;96552.53;4977112;28;20130;-69
2022/10/13 00:45:23;;;;;;;25.55;17.35;;;10.20;82.40;;;8.69;100.00;96551.22;5000356;28;20256;-69
2022/10/13 00:47:54;;;;;;;28.13;18.83;;;10.20;82.50;;;8.66;100.00;96552.38;5000010;28;20041;-70
2022/10/13 00:50:28;;;;;;;41.42;20.83;;;10.10;82.70;;;8.61;100.00;96554.69;4979306;28;20034;-69
2022/10/13 00:52:55;;;;;;;31.58;18.40;;;10.10;82.90;;;8.57;100.00;96554.19;4966287;28;20062;-69
2022/10/13 00:55:23;;;;;;;28.40;18.23;;;10.10;82.50;;;8.51;100.00;96556.66;4971063;28;20035;-69
2022/10/13 00:57:53;;;;;;;30.58;19.35;;;10.00;82.50;;;8.47;100.00;96550.91;5004606;28;20440;-68
2022/10/13 01:00:23;;;;;;;27.73;18.88;;;9.90;82.60;;;8.45;100.00;96550.28;4991737;28;20046;-69
2022/10/13 01:02:51;;;;;;;26.55;18.30;;;10.00;82.80;;;8.41;100.00;96548.97;4991039;28;20069;-69
2022/10/13 01:05:17;;;;;;;62.38;19.70;;;9.90;82.60;;;8.37;100.00;96558.13;5001514;28;20351;-69
2022/10/13 01:07:47;;;;;;;33.22;21.15;;;9.80;82.70;;;8.31;100.00;96561.38;4962692;28;20084;-69
2022/10/13 01:10:22;;;;;;;26.00;19.05;;;9.70;83.50;;;8.26;100.00;96555.81;4981488;28;20045;-69
2022/10/13 01:13:25;;;;;;;32.10;18.63;;;9.70;83.30;;;8.22;100.00;96559.72;4984869;28;20035;-69
2022/10/13 01:16:12;;;;;;;32.90;18.02;;;9.70;82.80;;;8.15;100.00;96559.56;4987449;28;20038;-69
2022/10/13 01:19:02;;;;;;;29.33;17.73;;;9.60;82.70;;;8.10;100.00;96550.53;4983468;28;20095;-69
2022/10/13 01:21:48;;;;;;;22.08;16.50;;;9.60;82.90;;;8.06;100.00;96559.72;5018209;28;20587;-69
2022/10/13 01:24:45;;;;;;;24.45;16.33;;;9.50;82.80;;;8.01;100.00;96562.81;4979667;28;20062;-68
2022/10/13 01:27:37;;;;;;;23.35;16.48;;;9.50;82.70;;;7.97;100.00;96557.09;4953286;28;20482;-69
2022/10/13 01:30:08;;;;;;;21.67;16.00;;;9.50;82.90;;;7.94;100.00;96556.59;5003279;28;20124;-69
2022/10/13 01:32:56;;;;;;;18.63;14.35;;;9.40;82.50;;;7.89;100.00;96557.06;4990627;28;20034;-69
2022/10/13 01:35:55;;;;;;;19.30;13.30;;;9.30;82.70;;;7.86;100.00;96559.19;4970447;28;20152;-68
2022/10/13 01:38:28;;;;;;;17.73;13.20;;;9.30;82.80;;;7.81;100.00;96551.81;5002827;28;20549;-69
2022/10/13 01:41:17;;;;;;;25.30;13.68;;;9.30;83.00;;;7.76;100.00;96548.84;4986192;28;20129;-69
2022/10/13 01:43:51;;;;;;;15.75;13.32;;;9.20;83.10;;;7.76;100.00;96550.66;5002557;28;20398;-69
2022/10/13 01:46:23;;;;;;;15.50;13.00;;;9.30;83.30;;;7.77;100.00;96544.44;5001035;28;20027;-70
2022/10/13 01:48:50;;;;;;;17.15;13.88;;;9.30;83.40;;;7.78;100.00;96543.47;5000592;28;20128;-69
2022/10/13 01:51:18;;;;;;;16.77;13.70;;;9.30;83.50;;;7.78;100.00;96554.75;4971353;28;20387;-69
2022/10/13 01:53:45;;;;;;;18.08;14.60;;;9.30;83.50;;;7.79;100.00;96553.78;4998064;28;20068;-69
2022/10/13 01:56:10;;;;;;;46.40;15.02;;;9.40;83.70;;;7.78;100.00;96548.69;4986899;28;20136;-69
2022/10/13 01:58:36;;;;;;;41.83;15.15;;;9.30;83.80;;;7.77;100.00;96547.88;5003604;28;20053;-68
2022/10/13 02:01:14;;;;;;;21.50;15.68;;;9.40;84.20;;;7.78;100.00;96541.66;4990147;28;20172;-69
2022/10/13 02:04:01;;;;;;;19.48;15.73;;;9.40;84.40;;;7.78;100.00;96557.38;4996148;28;20153;-69
2022/10/13 02:06:33;;;;;;;29.25;16.35;;;9.40;84.80;;;7.80;100.00;96552.78;5007998;28;20076;-69
2022/10/13 02:09:05;;;;;;;30.75;16.63;;;9.50;84.80;;;7.83;100.00;96552.47;4956770;28;20037;-69
2022/10/13 02:11:31;;;;;;;47.72;17.15;;;9.50;85.20;;;7.86;100.00;96554.75;4976327;28;20060;-69
2022/10/13 02:14:12;;;;;;;33.05;16.50;;;9.60;85.20;;;7.88;100.00;96557.22;5003678;28;20105;-70
2022/10/13 02:16:40;;;;;;;50.70;16.00;;;9.60;85.20;;;7.87;100.00;96551.16;4996948;28;20374;-69
2022/10/13 02:19:08;;;;;;;38.85;15.25;;;9.50;85.00;;;7.86;100.00;96554.75;4972804;28;20114;-69
2022/10/13 02:21:34;;;;;;;34.58;15.20;;;9.40;84.90;;;7.86;100.00;96549.53;4985244;28;20410;-69
2022/10/13 02:24:00;;;;;;;22.15;15.15;;;9.50;85.00;;;7.87;100.00;96550.34;4987863;28;20509;-69
2022/10/13 02:26:26;;;;;;;20.83;15.57;;;9.40;85.50;;;7.87;100.00;96553.78;4970117;28;20062;-69
2022/10/13 02:28:52;;;;;;;23.50;15.50;;;9.50;85.40;;;7.88;100.00;96551.97;4955202;28;20058;-69
2022/10/13 02:31:18;;;;;;;21.90;14.82;;;9.50;85.10;;;7.88;100.00;96555.41;4974168;28;20068;-69
2022/10/13 02:33:43;;;;;;;23.83;15.50;;;9.50;85.00;;;7.88;100.00;96552.78;5006767;28;20114;-69
2022/10/13 02:36:09;;;;;;;32.67;18.10;;;9.50;85.00;;;7.87;100.00;96545.09;4995981;28;20122;-69
2022/10/13 02:38:35;;;;;;;25.95;14.52;;;9.50;84.80;;;7.87;100.00;96545.91;4981590;28;20124;-69
2022/10/13 02:41:04;;;;;;;37.92;14.30;;;9.50;84.90;;;7.85;100.00;96547.06;4981199;28;20113;-70
2022/10/13 02:43:32;;;;;;;33.08;13.65;;;9.50;85.00;;;7.85;100.00;96536.59;4991814;28;20054;-69
2022/10/13 02:45:58;;;;;;;25.75;13.68;;;9.40;84.90;;;7.84;100.00;96540.19;4984488;28;20521;-68
2022/10/13 02:48:24;;;;;;;18.48;14.30;;;9.50;85.00;;;7.83;100.00;96535.94;4985821;28;20044;-69
2022/10/13 02:50:50;;;;;;;23.13;13.45;;;9.50;84.80;;;7.82;100.00;96547.38;4979495;28;20050;-69
2022/10/13 02:53:15;;;;;;;28.70;13.05;;;9.50;84.80;;;7.82;100.00;96542.16;4971538;28;20619;-68
2022/10/13 02:55:41;;;;;;;14.90;12.40;;;9.50;84.80;;;7.82;100.00;96537.72;4985776;28;20034;-69
2022/10/13 02:58:07;;;;;;;28.15;11.80;;;9.50;84.80;;;7.83;100.00;96539.38;5005056;28;20172;-69
2022/10/13 03:00:32;;;;;;;18.33;11.85;;;9.50;84.80;;;7.83;100.00;96536.75;4987158;28;20192;-69
2022/10/13 03:02:58;;;;;;;14.85;12.50;;;9.50;85.10;;;7.84;100.00;96537.56;4986776;28;20116;-69
2022/10/13 03:05:24;;;;;;;14.45;12.23;;;9.40;84.70;;;7.84;100.00;96532.34;4985987;28;20052;-69
2022/10/13 03:07:50;;;;;;;31.02;12.90;;;9.50;84.80;;;7.85;100.00;96532.16;4986703;28;20068;-69
2022/10/13 03:10:16;;;;;;;34.53;12.80;;;9.50;84.80;;;7.86;100.00;96535.59;4950820;28;20068;-69
2022/10/13 03:12:41;;;;;;;26.38;12.13;;;9.50;85.00;;;7.83;100.00;96539.38;4976735;28;20038;-68
2022/10/13 03:15:08;;;;;;;30.38;12.73;;;9.40;85.10;;;7.77;100.00;96533.97;4990263;28;20687;-68
2022/10/13 03:17:33;;;;;;;41.28;12.65;;;9.20;85.00;;;7.73;100.00;96533.47;4973471;28;20026;-69
2022/10/13 03:19:59;;;;;;;29.20;13.15;;;9.20;84.90;;;7.70;100.00;96530.38;4985425;28;20066;-69
2022/10/13 03:22:25;;;;;;;27.98;12.38;;;9.30;85.00;;;7.69;100.00;96521.66;4969786;28;20057;-70
2022/10/13 03:24:50;;;;;;;41.03;12.98;;;9.20;85.00;;;7.65;100.00;96517.72;4999706;28;20173;-69
2022/10/13 03:27:16;;;;;;;20.88;16.08;;;9.10;85.20;;;7.65;100.00;96526.41;4982584;28;20069;-69
2022/10/13 03:29:42;;;;;;;46.28;13.23;;;9.20;85.40;;;7.64;100.00;96521.31;5003785;28;20076;-69
2022/10/13 03:32:08;;;;;;;62.83;13.05;;;9.20;85.00;;;7.59;100.00;96523.59;5005502;28;20042;-69
2022/10/13 03:34:33;;;;;;;35.17;20.30;;;9.10;85.50;;;7.55;100.00;96530.97;5004680;28;20541;-69
2022/10/13 03:36:59;;;;;;;31.60;14.75;;;9.10;85.90;;;7.56;100.00;96537.84;4967155;28;20072;-68
2022/10/13 03:39:25;;;;;;;24.65;14.23;;;9.10;85.90;;;7.56;100.00;96531.78;4985626;28;20080;-69
2022/10/13 03:41:51;;;;;;;104.68;14.55;;;9.10;86.00;;;7.54;100.00;96537.19;4995679;28;20030;-69
2022/10/13 03:44:17;;;;;;;55.03;15.73;;;9.10;85.80;;;7.53;100.00;96537.34;4997151;28;20057;-69
2022/10/13 03:46:43;;;;;;;31.13;14.18;;;9.10;86.30;;;7.53;100.00;96545.19;4969433;28;20462;-68
2022/10/13 03:49:10;;;;;;;48.67;13.70;;;9.10;86.10;;;7.56;100.00;96547.50;4972132;28;20034;-69
2022/10/13 03:51:36;;;;;;;18.13;13.10;;;9.20;85.90;;;7.57;100.00;96544.72;5004090;28;20681;-70
2022/10/13 03:54:01;;;;;;;20.83;12.45;;;9.20;86.00;;;7.59;100.00;96548.00;4978452;28;20121;-70
2022/10/13 03:56:27;;;;;;;24.30;12.50;;;9.20;85.70;;;7.61;100.00;96537.34;4994694;28;20061;-69
2022/10/13 03:58:55;;;;;;;21.45;11.68;;;9.30;85.60;;;7.62;100.00;96542.44;4969174;28;20049;-69
2022/10/13 04:01:22;;;;;;;25.50;11.85;;;9.20;85.50;;;7.61;100.00;96547.81;4981406;28;20088;-69
2022/10/13 04:03:49;;;;;;;19.42;11.30;;;9.10;85.80;;;7.60;100.00;96538.34;5012275;28;20038;-70
2022/10/13 04:06:15;;;;;;;19.33;11.65;;;9.20;85.70;;;7.58;100.00;96535.06;4984826;28;20529;-68
2022/10/13 04:08:41;;;;;;;14.32;10.95;;;9.10;86.10;;;7.55;100.00;96535.38;4980830;28;20039;-68
2022/10/13 04:11:09;;;;;;;13.75;10.77;;;9.10;86.20;;;7.56;100.00;96542.25;4987115;28;20035;-68
2022/10/13 04:13:35;;;;;;;12.98;10.80;;;9.10;86.00;;;7.55;100.00;96545.84;5002214;28;20046;-67
2022/10/13 04:16:06;;;;;;;12.75;11.07;;;9.10;86.20;;;7.52;100.00;96541.75;4988281;28;20041;-67
2022/10/13 04:18:32;;;;;;;12.65;10.30;;;9.10;86.30;;;7.51;100.00;96540.13;4964648;28;20378;-68
2022/10/13 04:20:58;;;;;;;13.30;9.98;;;9.10;86.10;;;7.53;100.00;96537.34;5001622;28;20066;-68
2022/10/13 04:23:24;;;;;;;11.57;10.18;;;9.10;86.20;;;7.55;100.00;96545.84;5003391;28;20045;-68
2022/10/13 04:25:49;;;;;;;13.82;9.93;;;9.10;85.90;;;7.56;100.00;96552.72;5003855;28;20065;-68
2022/10/13 04:28:15;;;;;;;11.00;9.57;;;9.20;86.10;;;7.58;100.00;96545.53;4986744;28;20079;-68
2022/10/13 04:30:41;;;;;;;12.45;10.70;;;9.20;86.00;;;7.62;100.00;96552.09;4967960;28;20042;-68
2022/10/13 04:33:07;;;;;;;24.25;17.38;;;9.30;86.00;;;7.67;100.00;96549.81;4981557;28;20424;-68
2022/10/13 04:35:32;;;;;;;19.15;14.82;;;9.50;86.50;;;7.74;100.00;96560.47;4970303;28;20080;-70
2022/10/13 04:37:58;;;;;;;17.02;15.07;;;9.50;86.40;;;7.79;100.00;96542.47;5006503;28;20654;-65
2022/10/13 04:40:25;;;;;;;18.58;15.43;;;9.60;86.20;;;7.85;100.00;96555.75;4967176;28;20041;-69
2022/10/13 04:42:51;;;;;;;16.13;14.23;;;9.60;86.00;;;7.91;100.00;96547.22;4989892;28;20040;-64
2022/10/13 04:45:17;;;;;;;11.52;9.85;;;9.70;85.60;;;7.95;100.00;96553.81;5005858;28;20108;-64
2022/10/13 04:47:42;;;;;;;10.48;9.15;;;9.70;85.30;;;7.98;100.00;96545.63;4987522;28;20523;-69
2022/10/13 04:50:08;;;;;;;10.80;9.70;;;9.70;85.60;;;8.02;100.00;96545.31;4986479;28;20576;-68
2022/10/13 04:52:34;;;;;;;10.55;9.30;;;9.80;85.30;;;8.04;100.00;96540.72;4995927;28;20042;-67
2022/10/13 04:55:00;;;;;;;11.25;10.05;;;9.80;85.30;;;8.07;100.00;96543.81;4992479;28;20046;-67
2022/10/13 04:57:26;;;;;;;10.85;9.57;;;9.80;84.80;;;8.07;100.00;96540.38;4988960;28;20034;-67
2022/10/13 04:59:52;;;;;;;10.90;9.80;;;9.80;84.80;;;8.08;100.00;96536.78;4966383;28;20073;-65
2022/10/13 05:02:17;;;;;;;11.02;9.93;;;9.80;84.90;;;8.08;100.00;96531.53;4971162;28;20057;-66
2022/10/13 05:04:43;;;;;;;13.18;10.82;;;9.80;84.80;;;8.09;100.00;96533.19;4968746;28;20129;-66
2022/10/13 05:07:09;;;;;;;12.73;10.95;;;9.70;84.90;;;8.08;100.00;96537.59;4986818;28;20096;-65
2022/10/13 05:09:34;;;;;;;12.70;10.63;;;9.70;85.20;;;8.10;100.00;96532.19;4993936;28;20069;-60
2022/10/13 05:12:00;;;;;;;14.90;12.15;;;9.80;85.10;;;8.09;100.00;96534.00;4994777;28;20121;-64
2022/10/13 05:14:26;;;;;;;15.25;12.68;;;9.80;85.10;;;8.11;100.00;96532.03;4986442;28;20030;-70
2022/10/13 05:16:52;;;;;;;17.55;13.80;;;9.80;85.20;;;8.09;100.00;96531.38;4983968;28;20030;-68
2022/10/13 05:19:17;;;;;;;19.70;13.98;;;9.70;85.10;;;8.08;100.00;96531.53;4970528;28;20465;-64
2022/10/13 05:21:43;;;;;;;15.63;12.70;;;9.70;85.30;;;8.11;100.00;96526.78;5004418;28;20520;-64
2022/10/13 05:24:12;;;;;;;15.40;12.18;;;9.80;85.20;;;8.14;100.00;96533.50;4993675;28;20482;-64
2022/10/13 05:26:38;;;;;;;14.15;12.20;;;9.80;85.20;;;8.17;100.00;96534.03;5002819;28;20037;-63
2022/10/13 05:29:04;;;;;;;15.38;10.95;;;9.90;85.30;;;8.20;100.00;96538.94;4986051;28;20032;-63
2022/10/13 05:31:31;;;;;;;13.65;11.27;;;10.00;85.10;;;8.24;100.00;96536.81;4990272;28;20062;-64
2022/10/13 05:33:56;;;;;;;12.48;10.43;;;10.10;85.10;;;8.27;100.00;96532.03;4969619;28;20040;-64
2022/10/13 05:36:30;;;;;;;11.80;10.60;;;10.10;84.90;;;8.28;100.00;96530.25;4987134;28;20450;-64
2022/10/13 05:39:01;;;;;;;12.65;10.73;;;10.00;85.00;;;8.30;100.00;96533.53;4987097;28;20805;-63
2022/10/13 05:41:27;;;;;;;16.25;11.18;;;10.00;85.00;;;8.31;100.00;96527.28;4953673;28;20121;-63
2022/10/13 05:43:56;;;;;;;14.23;11.85;;;10.10;85.10;;;8.33;100.00;96535.00;4970447;28;20037;-63
2022/10/13 05:46:22;;;;;;;12.52;10.82;;;10.10;85.10;;;8.37;100.00;96531.91;4990539;28;20034;-62
2022/10/13 05:48:48;;;;;;;14.93;11.50;;;10.10;85.00;;;8.40;100.00;96531.59;4988091;28;20139;-62
2022/10/13 05:51:27;;;;;;;14.80;12.15;;;10.20;85.00;;;8.45;100.00;96534.53;5001148;28;20050;-63
2022/10/13 05:54:05;;;;;;;12.77;11.45;;;10.20;85.00;;;8.46;100.00;96527.50;4967097;28;20031;-63
2022/10/13 05:56:35;;;;;;;20.23;11.48;;;10.20;84.90;;;8.48;100.00;96534.19;4973283;28;20021;-64
2022/10/13 05:59:03;;;;;;;15.32;12.00;;;10.20;85.00;;;8.49;100.00;96530.59;4997814;28;20075;-63
2022/10/13 06:01:31;;;;;;;15.50;12.15;;;10.20;85.00;;;8.50;100.00;96531.41;4996124;28;20066;-63
2022/10/13 06:04:00;;;;;;;13.30;11.70;;;10.20;85.10;;;8.54;100.00;96530.91;5002833;28;20034;-63
2022/10/13 06:06:26;;;;;;;13.38;10.95;;;10.30;85.40;;;8.58;100.00;96529.59;4973056;28;20084;-62
2022/10/13 06:08:52;;;;;;;14.68;11.27;;;10.40;85.30;;;8.67;100.00;96526.97;4969020;28;20117;-63
2022/10/13 06:11:18;;;;;;;14.23;11.07;;;10.60;85.50;;;8.73;100.00;96527.13;4983454;28;20077;-64
2022/10/13 06:13:44;;;;;;;14.35;11.70;;;10.60;85.40;;;8.79;100.00;96526.44;4998504;28;20478;-63
2022/10/13 06:16:09;;;;;;;13.95;12.45;;;10.70;84.90;;;8.85;100.00;96535.47;5007588;28;20072;-63
2022/10/13 06:18:35;;;;;;;13.80;11.88;;;10.70;84.50;;;8.92;100.00;96520.69;4991119;28;20079;-63
2022/10/13 06:21:01;;;;;;;15.88;11.80;;;10.80;84.50;;;8.96;100.00;96529.88;4982179;28;20042;-62
2022/10/13 06:23:27;;;;;;;14.00;11.38;;;10.90;84.30;;;9.04;100.00;96529.81;4991878;28;20056;-63
2022/10/13 06:25:53;;;;;;;14.02;11.02;;;11.00;84.30;;;9.11;100.00;96522.94;4988551;28;20397;-64
2022/10/13 06:28:19;;;;;;;13.98;11.50;;;11.10;84.20;;;9.20;100.00;96534.22;4988484;28;20030;-63
2022/10/13 06:30:48;;;;;;;17.10;11.93;;;11.10;84.40;;;9.27;100.00;96532.53;4992631;28;20085;-64
2022/10/13 06:33:14;;;;;;;17.00;12.35;;;11.20;84.10;;;9.33;100.00;96528.44;4981838;28;20031;-64
2022/10/13 06:35:40;;;;;;;13.85;10.93;;;11.20;83.80;;;9.37;100.00;96529.72;4971061;28;20139;-64
2022/10/13 06:38:05;;;;;;;14.25;11.98;;;11.30;83.70;;;9.43;100.00;96529.03;4989783;28;20034;-64
2022/10/13 06:40:31;;;;;;;12.82;11.40;;;11.40;83.80;;;9.48;100.00;96524.91;4982872;28;20184;-65
2022/10/13 06:42:57;;;;;;;15.63;13.00;;;11.40;83.70;;;9.56;100.00;96525.88;4953962;28;20093;-63
2022/10/13 06:45:23;;;;;;;17.83;13.60;;;11.50;83.70;;;9.63;100.00;96527.63;4988889;28;20034;-63
2022/10/13 06:47:49;;;;;;;17.52;14.63;;;11.60;83.60;;;9.72;100.00;96531.00;5007778;28;20064;-63
2022/10/13 06:50:14;;;;;;;15.90;13.90;;;11.70;83.70;;;9.77;100.00;96532.16;5006397;28;20066;-63
2022/10/13 06:52:42;;;;;;;15.82;12.82;;;11.70;83.70;;;9.83;100.00;96539.34;4988550;28;20034;-67
2022/10/13 06:55:08;;;;;;;14.95;12.65;;;11.80;83.50;;;9.91;100.00;96535.84;4985216;28;20061;-65
2022/10/13 06:57:33;;;;;;;15.98;11.95;;;11.90;83.90;;;9.99;100.00;96540.25;4985821;28;20069;-69
2022/10/13 06:59:59;;;;;;;14.38;12.70;;;12.00;84.00;;;10.06;100.00;96539.34;4953976;28;20073;-66
2022/10/13 07:02:25;;;;;;;17.52;13.63;;;12.00;84.40;;;10.11;100.00;96538.81;4987995;28;20513;-62
2022/10/13 07:04:51;;;;;;;15.57;13.50;;;12.10;83.90;;;10.18;100.00;96533.69;5007349;28;20056;-62
2022/10/13 07:07:17;;;;;;;14.60;11.63;;;12.10;83.50;;;10.22;100.00;96533.22;4978785;28;20117;-63
2022/10/13 07:09:42;;;;;;;15.52;13.02;;;12.20;83.50;;;10.30;100.00;96538.38;5008105;28;20060;-63
2022/10/13 07:12:08;;;;;;;18.73;15.77;;;12.20;83.50;;;10.37;100.00;96544.56;4988591;28;20062;-64
2022/10/13 07:14:34;;;;;;;20.45;18.45;;;12.30;83.40;;;10.40;100.00;96535.50;5007638;28;20056;-61
2022/10/13 07:17:00;;;;;;;18.70;16.35;;;12.40;82.70;;;10.45;100.00;96527.13;4984709;28;20076;-62
2022/10/13 07:19:25;;;;;;;19.15;15.80;;;12.40;82.50;;;10.50;100.00;96530.84;4978558;28;20322;-60
2022/10/13 07:21:51;;;;;;;16.90;14.68;;;12.50;82.70;;;10.55;100.00;96530.28;4997349;28;20472;-62
2022/10/13 07:24:17;;;;;;;18.08;15.55;;;12.50;82.50;;;10.57;100.00;96538.81;4987281;28;20241;-61
2022/10/13 07:26:43;;;;;;;17.58;14.82;;;12.50;82.30;;;10.60;100.00;96523.50;4990342;28;20509;-61
2022/10/13 07:29:09;;;;;;;18.83;15.07;;;12.60;82.30;;;10.65;100.00;96520.34;4970888;28;20072;-64
2022/10/13 07:31:35;;;;;;;18.45;15.00;;;12.60;82.50;;;10.70;100.00;96525.91;5002318;28;20120;-61
2022/10/13 07:34:03;;;;;;;18.42;14.77;;;12.60;82.50;;;10.74;100.00;96527.16;4988988;28;20549;-62
2022/10/13 07:36:30;;;;;;;16.83;14.68;;;12.70;82.50;;;10.80;100.00;96531.69;5005487;28;20038;-62
2022/10/13 07:38:57;;;;;;;20.08;15.55;;;12.80;82.60;;;10.86;100.00;96523.09;5000755;28;20043;-62
2022/10/13 07:41:23;;;;;;;16.77;14.88;;;12.80;82.30;;;10.92;100.00;96527.66;4999593;28;20413;-64
2022/10/13 07:43:52;;;;;;;21.20;16.13;;;12.90;82.10;;;10.98;100.00;96516.38;4982208;28;20046;-62
2022/10/13 07:46:18;;;;;;;18.15;15.32;;;12.90;82.10;;;11.03;100.00;96514.03;4983969;28;20113;-62
2022/10/13 07:48:44;;;;;;;17.75;14.88;;;13.10;82.20;;;11.10;100.00;96508.88;5003993;28;20140;-61
2022/10/13 07:51:11;;;;;;;18.92;15.75;;;13.10;82.20;;;11.18;100.00;96506.13;4982389;28;20085;-61
2022/10/13 07:53:37;;;;;;;23.35;16.08;;;13.20;81.80;;;11.25;100.00;96506.22;4975342;28;20033;-61
2022/10/13 07:56:05;;;;;;;19.17;15.63;;;13.30;81.60;;;11.34;100.00;96505.13;4991019;28;20461;-61
2022/10/13 07:58:31;;;;;;;17.50;15.60;;;13.50;81.50;;;11.42;100.00;96497.13;5006131;28;20034;-62
2022/10/13 08:01:00;;;;;;;20.02;15.38;;;13.50;81.50;;;11.51;100.00;96501.25;4964835;28;20037;-61
2022/10/13 08:03:26;;;;;;;19.35;16.05;;;13.60;81.40;;;11.61;100.00;96504.44;4985541;28;20122;-61
2022/10/13 08:05:52;;;;;;;21.17;15.70;;;13.70;81.20;;;11.70;100.00;96496.41;4973781;28;20128;-62
2022/10/13 08:08:17;;;;;;;20.38;16.15;;;13.80;81.00;;;11.75;100.00;96501.94;4995781;28;20451;-61
2022/10/13 08:10:43;;;;;;;19.23;15.82;;;13.80;80.70;;;11.81;100.00;96495.97;4985802;28;20616;-60
2022/10/13 08:13:10;;;;;;;17.05;14.30;;;13.80;80.80;;;11.88;100.00;96491.56;5002141;28;20111;-65
2022/10/13 08:15:40;;;;;;;18.10;14.55;;;13.90;80.80;;;11.95;100.00;96489.81;4988876;28;20030;-65
2022/10/13 08:18:06;;;;;;;16.80;15.02;;;14.00;80.60;;;12.02;100.00;96498.63;4978047;28;20427;-61
2022/10/13 08:20:33;;;;;;;16.48;14.07;;;14.10;80.50;;;12.05;100.00;96495.63;4988562;28;20038;-61
2022/10/13 08:22:58;;;;;;;17.98;13.10;;;14.10;80.10;;;12.12;100.00;96504.41;4985309;28;20041;-61
2022/10/13 08:25:24;;;;;;;15.77;14.02;;;14.10;80.40;;;12.17;100.00;96507.28;4987812;28;20058;-61
2022/10/13 08:27:50;;;;;;;17.23;13.73;;;14.20;80.40;;;12.20;100.00;96512.16;4989039;28;20033;-61
2022/10/13 08:30:16;;;;;;;20.05;14.63;;;14.20;80.50;;;12.23;100.00;96506.53;4999734;28;20121;-61
2022/10/13 08:32:42;;;;;;;15.88;14.05;;;14.20;80.30;;;12.26;100.00;96514.06;5005963;28;20038;-61
2022/10/13 08:35:08;;;;;;;20.88;14.25;;;14.20;80.40;;;12.29;100.00;96510.22;5005977;28;20074;-61
2022/10/13 08:37:34;;;;;;;20.63;15.60;;;14.20;80.30;;;12.30;100.00;96500.50;4964309;28;20038;-61
2022/10/13 08:40:00;;;;;;;18.88;15.07;;;14.20;80.20;;;12.32;100.00;96494.03;4985743;28;20118;-61
2022/10/13 08:42:25;;;;;;;16.80;14.07;;;14.30;80.30;;;12.37;100.00;96504.00;5000202;28;20505;-61
2022/10/13 08:45:03;;;;;;;20.98;15.32;;;14.30;80.40;;;12.40;100.00;96496.53;4976975;28;20481;-62
2022/10/13 08:47:47;;;;;;;17.55;14.55;;;14.40;80.20;;;12.47;100.00;96491.31;4990049;28;20509;-61
2022/10/13 08:50:15;;;;;;;18.90;14.90;;;14.50;80.60;;;12.51;100.00;96492.56;4985676;28;20047;-62
2022/10/13 08:52:56;;;;;;;26.23;17.25;;;14.60;80.30;;;12.54;100.00;96492.19;4970867;28;20161;-61
2022/10/13 08:55:28;;;;;;;22.98;17.35;;;14.60;80.00;;;12.55;100.00;96472.69;4988435;28;20426;-61
2022/10/13 08:57:54;;;;;;;21.00;16.70;;;14.50;80.00;;;12.62;100.00;96470.91;4996591;28;20172;-62
2022/10/13 09:00:20;;;;;;;23.20;16.67;;;14.60;79.90;;;12.67;100.00;96471.13;4985558;28;20038;-61
2022/10/13 09:02:45;;;;;;;19.95;15.55;;;14.70;80.00;;;12.74;100.00;96469.38;4998411;28;20113;-61
2022/10/13 09:05:36;;;;;;;23.50;16.48;;;14.80;79.60;;;12.83;100.00;96481.41;4985092;28;20123;-62
2022/10/13 09:08:02;;;;;;;20.88;15.27;;;14.90;79.90;;;12.90;100.00;96478.84;4989039;28;20057;-62
2022/10/13 09:10:28;;;;;;;21.08;15.75;;;15.00;80.00;;;12.99;100.00;96474.19;4978652;28;20049;-62
2022/10/13 09:12:54;;;;;;;18.90;15.43;;;15.10;79.60;;;13.05;100.00;96476.06;4999554;28;20130;-62
2022/10/13 09:15:20;;;;;;;23.85;15.82;;;15.20;79.40;;;13.12;100.00;96472.44;4988519;28;20143;-61
2022/10/13 09:17:47;;;;;;;21.98;15.85;;;15.20;79.30;;;13.19;100.00;96469.88;4978821;28;20129;-61
2022/10/13 09:20:19;;;;;;;20.48;15.73;;;15.20;79.20;;;13.27;100.00;96469.69;4989496;28;20053;-61
2022/10/13 09:23:19;;;;;;;23.35;16.90;;;15.30;79.00;;;13.37;100.00;96472.81;4978800;28;20520;-61
2022/10/13 09:25:48;;;;;;;18.35;15.02;;;15.40;79.10;;;13.46;100.00;96471.63;5001589;28;20401;-61
2022/10/13 09:28:30;;;;;;;22.30;16.38;;;15.70;78.80;;;13.62;100.00;96469.63;4982671;28;20109;-61
2022/10/13 09:31:04;;;;;;;21.05;15.02;;;16.00;78.30;;;13.76;100.00;96468.66;4997868;28;20034;-62
2022/10/13 09:33:34;;;;;;;22.42;14.65;;;16.10;78.00;;;13.94;100.00;96462.78;4997272;28;20453;-61
2022/10/13 09:36:05;;;;;;;18.95;14.15;;;16.40;77.10;;;14.08;100.00;96465.25;4985003;28;20506;-63
2022/10/13 09:38:31;;;;;;;20.08;15.27;;;16.50;76.70;;;14.23;100.00;96458.94;5005830;28;20362;-61
2022/10/13 09:41:12;;;;;;;21.67;15.23;;;16.60;76.10;;;14.41;100.00;96459.16;4997137;28;20042;-61
2022/10/13 09:43:46;;;;;;;27.25;14.77;;;16.70;75.80;;;14.55;100.00;96455.53;4989965;28;20038;-61
2022/10/13 09:46:17;;;;;;;20.23;14.63;;;16.80;75.30;;;14.65;100.00;96455.91;5007185;28;20518;-65
2022/10/13 09:48:47;;;;;;;19.80;13.60;;;16.90;74.20;;;14.72;100.00;96449.81;5004247;28;20038;-66
2022/10/13 09:51:39;;;;;;;23.75;15.00;;;16.90;73.90;;;14.83;100.00;96447.34;5004425;28;20041;-65
2022/10/13 09:54:06;;;;;;;18.67;13.48;;;17.00;73.80;;;14.90;100.00;96452.63;4992577;28;20075;-65
2022/10/13 09:56:49;;;;;;;22.83;14.32;;;17.10;73.80;;;14.97;100.00;96448.16;4972165;28;20502;-63
2022/10/13 09:59:47;;;;;;;21.33;14.43;;;17.10;73.60;;;15.12;100.00;96445.22;4970751;28;20112;-67
2022/10/13 10:02:36;;;;;;;18.25;11.40;;;17.40;72.70;;;15.22;100.00;96457.03;4986834;28;20026;-67
2022/10/13 10:05:45;;;;;;;18.50;10.10;;;17.50;69.70;;;15.31;100.00;96445.16;5005836;28;20050;-67
2022/10/13 10:08:33;;;;;;;13.63;10.07;;;17.50;69.30;;;15.38;100.00;96450.44;4997867;28;20040;-67
2022/10/13 10:11:04;;;;;;;13.57;10.13;;;17.60;68.30;;;15.44;100.00;96443.50;4988404;28;20357;-68
2022/10/13 10:13:30;;;;;;;15.27;11.25;;;17.50;67.90;;;15.45;100.00;96445.13;4985407;28;20042;-65
2022/10/13 10:16:16;;;;;;;18.48;11.80;;;17.40;68.80;;;15.49;100.00;96451.63;5005500;28;20527;-64